Sti Battery — V7DR9 — position and weather

sailwx.info

Track history (hours):
 
Tides and Currents Weather Stations Pressure Air Temp Water Temp Dewpoint Dewpoint Depression Visibility Wind Speed Wind Dir Waves Ship Positions

Sti Battery

Last reported at 2017-Oct-21 09:42 UTC. Time now 2017-Nov-18 19:41 UTC.
Position N 29°30' W 094°52'.
Warning: this ship's position is 28 days out of date.

Length 183 m; draft 11.2 m.

Type: Tanker. MMSI: 538005425.

Date/timePositionNaut miles runAvg speedWind from/ knotsBaromVisibWave heightAir tempDewpointWater temp
2017-Oct-21 09:42N 29°30' W 094°52'211.4
2017-Oct-21 09:30N 29°31' W 094°53'511.1
2017-Oct-21 09:00N 29°36' W 094°57'510.7
2017-Oct-21 08:30N 29°41' W 094°59'4 8.0
2017-Oct-21 08:00N 29°44' W 095°02'3 6.1
2017-Oct-21 07:28N 29°45' W 095°06'3 5.9
2017-Oct-21 07:00N 29°44' W 095°09'2 4.8
2017-Oct-21 06:31N 29°45' W 095°11'2 4.7
2017-Oct-21 06:01N 29°44' W 095°14'  
2017-Oct-18 10:33N 29°43' W 095°14'0 0.0
2017-Oct-18 10:30N 29°43' W 095°14'0 0.0
2017-Oct-17 11:57N 29°43' W 095°14'0 0.0
2017-Oct-17 11:30N 29°43' W 095°14'0 0.6
2017-Oct-17 11:00N 29°43' W 095°14'2 3.0
2017-Oct-17 10:30N 29°44' W 095°13'3 5.3
2017-Oct-17 10:00N 29°45' W 095°10'3 5.7
2017-Oct-17 09:29N 29°45' W 095°06'2 5.0
2017-Oct-17 09:00N 29°44' W 095°04'3 6.4
2017-Oct-17 08:30N 29°42' W 095°01'510.1
2017-Oct-17 08:00N 29°38' W 094°58'612.0
2017-Oct-17 07:30N 29°33' W 094°54'612.2
2017-Oct-17 07:00N 29°28' W 094°51'  
Track history (hours):
 
Tides and Currents Weather Stations Pressure Air Temp Water Temp Dewpoint Dewpoint Depression Visibility Wind Speed Wind Dir Waves Ship Positions

Sti Battery

Last reported at 2017-Oct-21 09:42 UTC. Time now 2017-Nov-18 19:41 UTC.
Position N 29°30' W 094°52'.
Warning: this ship's position is 28 days out of date.

Length 183 m; draft 11.2 m.

Type: Tanker. MMSI: 538005425.

Date/timePositionNaut miles runAvg speedWind from/ knotsBaromVisibWave heightAir tempDewpointWater temp
2017-Oct-21 09:42N 29°30' W 094°52'211.4
2017-Oct-21 09:30N 29°31' W 094°53'511.1
2017-Oct-21 09:00N 29°36' W 094°57'510.7
2017-Oct-21 08:30N 29°41' W 094°59'4 8.0
2017-Oct-21 08:00N 29°44' W 095°02'3 6.1
2017-Oct-21 07:28N 29°45' W 095°06'3 5.9
2017-Oct-21 07:00N 29°44' W 095°09'2 4.8
2017-Oct-21 06:31N 29°45' W 095°11'2 4.7
2017-Oct-21 06:01N 29°44' W 095°14'  
2017-Oct-18 10:33N 29°43' W 095°14'0 0.0
2017-Oct-18 10:30N 29°43' W 095°14'0 0.0
2017-Oct-17 11:57N 29°43' W 095°14'0 0.0
2017-Oct-17 11:30N 29°43' W 095°14'0 0.6
2017-Oct-17 11:00N 29°43' W 095°14'2 3.0
2017-Oct-17 10:30N 29°44' W 095°13'3 5.3
2017-Oct-17 10:00N 29°45' W 095°10'3 5.7
2017-Oct-17 09:29N 29°45' W 095°06'2 5.0
2017-Oct-17 09:00N 29°44' W 095°04'3 6.4
2017-Oct-17 08:30N 29°42' W 095°01'510.1
2017-Oct-17 08:00N 29°38' W 094°58'612.0
2017-Oct-17 07:30N 29°33' W 094°54'612.2
2017-Oct-17 07:00N 29°28' W 094°51'  

Dump ship's entire track history